VCBIVOCL

Guest
Details From VCBI - BANDARANAIKE INTL COLOMBO
To VOCL - CALICUT
Flight Number -
Tags generated
Created
Modified
Stats Distance 340 nm / 630 km
Max Altitude 34,000 ft / 10,363 m
Waypoints 6
Social Downloads 0
Likes 0
Share VATSIM

Download

Looking for another format? Having issues loading an existing format? Contact us
Advertisement - Login to hide

Notes

Basic altitude profile: - Ascent Rate: 2500ft/min - Ascent Speed: 250kts - Cruise Altitude: 35000ft - Cruise Speed: 420kts - Descent Rate: 1500ft/min - Descent Speed: 250kts Options: - Use NATs: yes - Use PACOTS: yes - Use low airways: yes - Use high airways: yes

Route

VCBI CJ R461 MDI M300 CLC VOCL

ID Type Via Altitude Latitude Longitude Leg Dist Tot Dist Heading (true) Name
O VCBI APT - 0 ft / 0 m 7.18075˚ 79.88412˚ - 0 nm - BANDARANAIKE INTL COLOMBO
CJ NDB - 16,300 ft / 4,968 m 7.85528˚ 79.43218˚ 48 nm 48 nm 326° / 326° -
DEMON FIX R461 (AWY-LO) 34,000 ft / 10,363 m 8.55690˚ 78.94390˚ 51 nm 99 nm 325° / 325° -
MDI VOR R461 (AWY-HI) 30,800 ft / 9,388 m 9.83108˚ 78.08903˚ 91 nm 191 nm 327° / 326° MADURAI VOR-DME
CLC VOR M300 (AWY-LO) 28,000 ft / 8,534 m 11.13515˚ 75.95485˚ 148 nm 339 nm 302° / 302° CALICUT VOR-DME
O VOCL APT - 0 ft / 0 m 11.13684˚ 75.95530˚ 0 nm 340 nm 15° / 15° CALICUT

Altitude Profile

Advertisement - Login to hide

Weather


0- 5 10 15 20 25 30 35+ Temperature / ° C

Clouds and Precipitation
Forecast for 2017-12-17 12:00 UTC. Updated an hour ago

Ground ~20,000 ft ~40,000 ft Winds

VCBI

Details ICAO VCBI (CMB)
Name BANDARANAIKE INTL COLOMBO
Region Sri Lanka
Timezone Asia/Colombo (UTC+5.5)
Stats Elevation 30 ft / 9 m (AMSL)
Location 7.180754° 79.884118°
Runways 1
Magnetic Variation 2.067° W

METAR

VCBI 170810Z 04016KT 9999 FEW017 32/21 Q1010 NOSIG

Decode

TAF

Not found

Departure Runways

ID Width Length Bearing (true) Bearing (mag) Surface Threshold Offset Overrun Length
04 148 ft / 45 m 11,018 ft / 3,358 m 37.25° 39.32° Asphalt 0 ft / 0 m 215 ft / 66 m
22 148 ft / 45 m 11,018 ft / 3,358 m 217.25° 219.32° Asphalt 0 ft / 0 m 300 ft / 91 m

VOCL

Details ICAO VOCL (CCJ)
Name CALICUT
Region India
Timezone Asia/Kolkata (UTC+5.5)
Stats Elevation 342 ft / 104 m (AMSL)
Location 11.136840° 75.955300°
Runways 1
Magnetic Variation 1.491° W

METAR

VOCL 170830Z 10003KT 8000 NSC 32/18 Q1011 NOSIG

Decode

TAF

Not found

Destination Runways

ID Width Length Bearing (true) Bearing (mag) Surface Threshold Offset Overrun Length
10 150 ft / 46 m 9,384 ft / 2,860 m 101.05° 102.54° Asphalt 0 ft / 0 m 190 ft / 58 m
28 150 ft / 46 m 9,384 ft / 2,860 m 281.06° 282.55° Asphalt 0 ft / 0 m 190 ft / 58 m

Approach Navaids

Runway Type Ident Frequency Range Bearing (true) Bearing (mag) Slope Elevation
28 Localiser ICAC 109.50 MHz 18 nm / 33 km 275.76° 277.25° - 311 ft / 95 m (AMSL)
28 Glidescope ICAC 109.50 MHz 10 nm / 19 km 281.06° 282.55° 3.20° 320 ft / 98 m (AMSL)
28 DME ICAC 109.50 MHz 18 nm / 33 km - - - 342 ft / 104 m (AMSL)

Popular Alternatives